Time;durP1;ratioP1;P1;durP2;ratioP2;P2;SDS_P1;SDS_P2;PMS_P1;PMS_P2;Temp;Humidity;BMP_temperature;BMP_pressure;BME280_temperature;BME280_humidity;BME280_pressure;Samples;Min_cycle;Max_cycle;Signal;HPM_P1;HPM_P2
2021/06/02 00:00:23;;;;;;;3.55;2.08;;;18.20;99.90;;;;;;5085149;28;20182;-85
2021/06/02 00:02:53;;;;;;;5.18;2.15;;;18.10;99.90;;;;;;5114469;28;20192;-86
2021/06/02 00:05:19;;;;;;;4.07;2.33;;;18.10;99.90;;;;;;5114402;28;20185;-86
2021/06/02 00:07:47;;;;;;;4.47;2.17;;;17.90;99.90;;;;;;5097312;28;20174;-85
2021/06/02 00:10:14;;;;;;;3.00;2.40;;;17.80;99.90;;;;;;5093926;28;20649;-86
2021/06/02 00:12:40;;;;;;;2.30;2.17;;;17.70;99.90;;;;;;5093867;28;20166;-86
2021/06/02 00:15:07;;;;;;;2.20;1.98;;;17.70;99.90;;;;;;5092786;28;20241;-86
2021/06/02 00:17:33;;;;;;;3.55;2.53;;;17.70;99.90;;;;;;5093594;28;20178;-86
2021/06/02 00:19:59;;;;;;;3.60;2.25;;;17.60;99.90;;;;;;5093507;28;20702;-85
2021/06/02 00:22:24;;;;;;;2.35;2.13;;;17.60;99.90;;;;;;5092678;28;20174;-86
2021/06/02 00:24:50;;;;;;;3.75;2.08;;;17.60;99.90;;;;;;5093632;28;20654;-86
2021/06/02 00:27:17;;;;;;;3.05;2.17;;;17.60;99.90;;;;;;5093626;28;20258;-86
2021/06/02 00:29:44;;;;;;;6.00;2.28;;;17.50;99.90;;;;;;5093868;28;20174;-85
2021/06/02 00:32:13;;;;;;;2.35;2.08;;;17.50;99.90;;;;;;5096627;28;20174;-85
2021/06/02 00:34:39;;;;;;;5.25;2.30;;;17.40;99.90;;;;;;5097556;28;20177;-86
2021/06/02 00:37:08;;;;;;;2.88;2.53;;;17.40;99.90;;;;;;5096162;28;20181;-86
2021/06/02 00:39:34;;;;;;;3.00;2.50;;;17.40;99.90;;;;;;5097064;28;20201;-84
2021/06/02 00:42:00;;;;;;;2.58;2.25;;;17.40;99.90;;;;;;5097512;28;20162;-86
2021/06/02 00:44:26;;;;;;;6.25;3.05;;;17.30;99.90;;;;;;5097369;28;20239;-86
2021/06/02 00:46:55;;;;;;;3.08;2.45;;;17.30;99.90;;;;;;5097128;28;20174;-86
2021/06/02 00:49:23;;;;;;;2.63;2.42;;;17.20;99.90;;;;;;5097104;28;20219;-86
2021/06/02 00:51:57;;;;;;;4.57;2.67;;;17.20;99.90;;;;;;5097099;28;20672;-86
2021/06/02 00:54:24;;;;;;;2.67;2.47;;;17.10;99.90;;;;;;5095922;28;20189;-86
2021/06/02 00:56:55;;;;;;;3.80;2.90;;;17.00;99.90;;;;;;5096769;28;20189;-85
2021/06/02 00:59:37;;;;;;;6.40;3.30;;;16.90;99.90;;;;;;5096983;28;20228;-85
2021/06/02 01:02:03;;;;;;;6.38;2.90;;;16.90;99.90;;;;;;5095664;28;20194;-86
2021/06/02 01:04:29;;;;;;;3.58;3.20;;;16.70;99.90;;;;;;5109470;28;20202;-84
2021/06/02 01:06:56;;;;;;;3.25;2.88;;;16.60;99.90;;;;;;5121149;28;20178;-83
2021/06/02 01:09:24;;;;;;;3.17;2.90;;;16.50;99.90;;;;;;5120594;28;20150;-85
2021/06/02 01:11:51;;;;;;;5.72;2.85;;;16.40;99.90;;;;;;5120808;28;20160;-83
2021/06/02 01:14:20;;;;;;;3.30;3.00;;;16.40;99.90;;;;;;5108419;28;20188;-85
2021/06/02 01:16:47;;;;;;;3.15;2.88;;;16.30;99.90;;;;;;5099956;28;20166;-86
2021/06/02 01:19:17;;;;;;;5.55;3.20;;;16.20;99.90;;;;;;5102385;28;20170;-86
2021/06/02 01:22:00;;;;;;;3.50;3.20;;;16.20;99.90;;;;;;5102588;28;20178;-85
2021/06/02 01:24:32;;;;;;;9.13;3.50;;;16.20;99.90;;;;;;5096885;28;20613;-86
2021/06/02 01:26:59;;;;;;;7.70;3.53;;;16.10;99.90;;;;;;5095209;28;20541;-86
2021/06/02 01:29:27;;;;;;;3.15;2.95;;;16.10;99.90;;;;;;5095321;28;20174;-86
2021/06/02 01:32:38;;;;;;;4.32;2.85;;;16.10;99.90;;;;;;5095527;28;20193;-86
2021/06/02 01:35:31;;;;;;;3.50;3.20;;;16.30;99.90;;;;;;5073899;28;20170;-86
2021/06/02 01:38:15;;;;;;;6.22;2.95;;;16.20;99.90;;;;;;5093679;28;20250;-84
2021/06/02 01:40:41;;;;;;;3.00;2.80;;;16.30;99.90;;;;;;5096066;28;20606;-86
2021/06/02 01:43:40;;;;;;;4.93;2.95;;;16.20;99.90;;;;;;5095336;28;20260;-86
2021/06/02 01:46:43;;;;;;;4.30;2.47;;;16.20;99.90;;;;;;5085350;28;20568;-86
2021/06/02 01:49:50;;;;;;;5.30;3.63;;;16.20;99.90;;;;;;5111014;28;20195;-86
2021/06/02 01:52:53;;;;;;;3.55;3.25;;;16.10;99.90;;;;;;5096211;28;20162;-86
2021/06/02 01:55:57;;;;;;;5.55;3.42;;;16.10;99.90;;;;;;5094872;28;20641;-85
2021/06/02 01:59:08;;;;;;;3.65;3.10;;;16.10;99.90;;;;;;5078192;28;20217;-85
2021/06/02 02:01:56;;;;;;;5.28;3.53;;;16.10;99.90;;;;;;5094534;28;20242;-86
2021/06/02 02:04:59;;;;;;;4.53;3.03;;;16.00;99.90;;;;;;5094782;28;20211;-86
2021/06/02 02:07:43;;;;;;;4.72;3.47;;;15.90;99.90;;;;;;5095413;28;20173;-85
2021/06/02 02:10:37;;;;;;;5.55;3.25;;;15.90;99.90;;;;;;5095831;28;20248;-86
2021/06/02 02:13:19;;;;;;;13.13;3.53;;;15.90;99.90;;;;;;5095044;28;20543;-85
2021/06/02 02:16:25;;;;;;;7.80;3.78;;;15.90;99.90;;;;;;5095895;28;20207;-86
2021/06/02 02:19:24;;;;;;;5.22;3.20;;;16.00;99.90;;;;;;5075107;28;20182;-85
2021/06/02 02:22:05;;;;;;;4.65;3.83;;;15.90;99.90;;;;;;5075408;28;20213;-84
2021/06/02 02:24:52;;;;;;;3.50;3.30;;;15.80;99.90;;;;;;5075260;28;20190;-86
2021/06/02 02:27:43;;;;;;;4.18;3.75;;;15.80;99.90;;;;;;5087456;28;20178;-86
2021/06/02 02:30:37;;;;;;;3.65;3.35;;;15.70;99.90;;;;;;5095521;28;20162;-87
2021/06/02 02:33:16;;;;;;;4.10;3.70;;;15.60;99.90;;;;;;5094124;28;20509;-85
2021/06/02 02:35:59;;;;;;;9.40;4.10;;;15.60;99.90;;;;;;5095154;28;20166;-85
2021/06/02 02:38:54;;;;;;;4.47;4.07;;;15.50;99.90;;;;;;5088735;28;20166;-85
2021/06/02 02:41:41;;;;;;;5.28;4.00;;;15.50;99.90;;;;;;5093988;28;20682;-86
2021/06/02 02:44:35;;;;;;;3.65;3.35;;;15.40;99.90;;;;;;5095068;28;20166;-85
2021/06/02 02:47:35;;;;;;;5.80;4.07;;;15.40;99.90;;;;;;5094544;28;20174;-86
2021/06/02 02:50:04;;;;;;;3.97;3.67;;;15.40;99.90;;;;;;5095063;28;20494;-86
2021/06/02 02:52:44;;;;;;;5.10;4.60;;;15.40;99.90;;;;;;5094807;28;20162;-86
2021/06/02 02:55:19;;;;;;;3.92;3.63;;;15.30;99.90;;;;;;5095016;28;20225;-86
2021/06/02 02:57:54;;;;;;;7.45;3.85;;;15.30;99.90;;;;;;5089668;28;20246;-86
2021/06/02 03:00:33;;;;;;;14.05;3.95;;;15.30;99.90;;;;;;5094815;28;20168;-85
2021/06/02 03:03:04;;;;;;;6.68;3.50;;;15.20;99.90;;;;;;5093654;28;20204;-85
2021/06/02 03:05:31;;;;;;;5.82;4.10;;;15.20;99.90;;;;;;5093150;28;20189;-85
2021/06/02 03:08:30;;;;;;;4.60;4.00;;;15.10;99.90;;;;;;5094726;28;20177;-86
2021/06/02 03:11:15;;;;;;;7.35;4.00;;;15.10;99.90;;;;;;5093758;28;20165;-85
2021/06/02 03:13:58;;;;;;;4.22;3.83;;;15.00;99.90;;;;;;5093424;28;20607;-85
2021/06/02 03:16:30;;;;;;;4.68;3.47;;;15.00;99.90;;;;;;5080511;28;20162;-86
2021/06/02 03:19:16;;;;;;;3.80;3.40;;;15.00;99.90;;;;;;5094601;28;20154;-86
2021/06/02 03:22:04;;;;;;;5.05;4.38;;;15.00;99.90;;;;;;5093478;28;20164;-85
2021/06/02 03:24:32;;;;;;;9.00;4.78;;;15.00;99.90;;;;;;5094074;28;20529;-86
2021/06/02 03:27:13;;;;;;;5.65;4.35;;;15.00;99.90;;;;;;5094056;28;20174;-86
2021/06/02 03:30:03;;;;;;;4.72;4.32;;;14.90;99.90;;;;;;5093392;28;20244;-85
2021/06/02 03:32:50;;;;;;;6.20;4.55;;;14.90;99.90;;;;;;5094561;28;20166;-84
2021/06/02 03:35:20;;;;;;;4.68;4.35;;;14.80;99.90;;;;;;5094203;28;20166;-87
2021/06/02 03:38:06;;;;;;;3.95;3.65;;;14.90;99.90;;;;;;5094103;28;20174;-87
2021/06/02 03:40:50;;;;;;;5.05;4.68;;;14.80;99.90;;;;;;5094184;28;20170;-87
2021/06/02 03:43:43;;;;;;;5.05;4.57;;;14.70;99.90;;;;;;5092817;28;20202;-87
2021/06/02 03:46:09;;;;;;;14.45;4.70;;;14.80;99.90;;;;;;5092795;28;20273;-87
2021/06/02 03:48:46;;;;;;;7.22;4.63;;;14.70;99.90;;;;;;5092912;28;20201;-87
2021/06/02 03:51:44;;;;;;;9.52;4.75;;;14.80;99.90;;;;;;5092979;28;20168;-87
2021/06/02 03:54:25;;;;;;;5.10;4.57;;;14.70;99.90;;;;;;5093957;28;20166;-87
2021/06/02 03:57:12;;;;;;;9.95;4.57;;;14.70;99.90;;;;;;5094141;28;20237;-87
2021/06/02 04:00:08;;;;;;;5.07;4.43;;;14.70;99.90;;;;;;5094184;28;20212;-85
2021/06/02 04:02:48;;;;;;;4.38;4.00;;;14.80;99.90;;;;;;5094201;28;20217;-86
2021/06/02 04:05:32;;;;;;;8.85;4.75;;;14.80;99.90;;;;;;5080803;28;20231;-87
2021/06/02 04:08:23;;;;;;;10.20;4.43;;;14.80;99.90;;;;;;5096868;28;20242;-87
2021/06/02 04:11:11;;;;;;;4.93;4.43;;;14.90;99.90;;;;;;5096821;28;20167;-87
2021/06/02 04:13:58;;;;;;;5.28;4.72;;;14.80;99.90;;;;;;5123309;22;20226;-90
2021/06/02 04:16:41;;;;;;;7.70;4.57;;;14.70;99.90;;;;;;5065987;28;20218;-89
2021/06/02 04:19:10;;;;;;;5.28;4.53;;;14.80;99.90;;;;;;5098274;28;20165;-89
2021/06/02 04:21:41;;;;;;;12.57;4.60;;;14.80;99.90;;;;;;5099112;28;20167;-89
2021/06/02 04:24:10;;;;;;;5.05;4.57;;;14.90;99.90;;;;;;5098846;28;20198;-90
2021/06/02 04:26:36;;;;;;;6.35;4.45;;;14.90;99.90;;;;;;5098297;28;20297;-90
2021/06/02 04:29:13;;;;;;;6.60;4.43;;;15.00;99.90;;;;;;5098185;28;20253;-90
2021/06/02 04:32:01;;;;;;;4.43;4.03;;;15.00;99.90;;;;;;5094686;28;20275;-90
2021/06/02 04:34:28;;;;;;;5.28;4.72;;;15.20;99.90;;;;;;5077936;28;20166;-90
2021/06/02 04:36:56;;;;;;;4.40;4.00;;;15.40;99.90;;;;;;5093979;28;20170;-88
2021/06/02 04:39:24;;;;;;;12.65;4.95;;;15.60;99.90;;;;;;5094057;28;20212;-89
2021/06/02 04:41:54;;;;;;;4.03;3.60;;;15.90;99.90;;;;;;5093951;28;20250;-90
2021/06/02 04:44:23;;;;;;;11.88;4.25;;;16.20;99.90;;;;;;5076616;28;20521;-90
2021/06/02 04:46:49;;;;;;;5.75;3.58;;;16.50;99.90;;;;;;5093558;28;20155;-90
2021/06/02 04:49:15;;;;;;;4.18;2.88;;;17.70;99.90;;;;;;5093514;28;20216;-89
2021/06/02 04:52:04;;;;;;;4.07;3.30;;;19.30;99.90;;;;;;5094143;28;20673;-90
2021/06/02 04:54:55;;;;;;;4.50;3.08;;;20.90;99.90;;;;;;5078727;28;20163;-90
2021/06/02 04:57:39;;;;;;;2.63;2.42;;;22.60;99.90;;;;;;5094127;28;20296;-90
2021/06/02 05:00:11;;;;;;;8.10;3.03;;;23.70;99.90;;;;;;5093777;28;20162;-90
2021/06/02 05:03:12;;;;;;;3.90;2.55;;;24.80;99.90;;;;;;5093488;28;20167;-90
2021/06/02 05:06:16;;;;;;;5.05;2.72;;;25.50;99.90;;;;;;5092977;28;20194;-90
2021/06/02 05:09:07;;;;;;;2.40;2.20;;;26.40;99.90;;;;;;5093419;28;20175;-90
2021/06/02 05:11:46;;;;;;;4.25;2.50;;;27.10;99.90;;;;;;5093628;28;20612;-91
2021/06/02 05:14:54;;;;;;;2.70;2.50;;;27.90;99.70;;;;;;5092944;28;20307;-91
2021/06/02 05:17:53;;;;;;;4.82;2.60;;;28.70;97.80;;;;;;5091444;28;20183;-90
2021/06/02 05:20:50;;;;;;;3.65;2.25;;;29.50;95.40;;;;;;5077087;28;20155;-90
2021/06/02 05:23:27;;;;;;;5.20;2.60;;;30.20;93.80;;;;;;5077171;28;20167;-89
2021/06/02 05:26:19;;;;;;;9.02;3.35;;;31.00;92.20;;;;;;5092832;28;20658;-90
2021/06/02 05:29:02;;;;;;;6.97;2.97;;;31.70;91.10;;;;;;5056237;28;20183;-91
2021/06/02 05:31:46;;;;;;;3.05;2.78;;;32.30;90.00;;;;;;5078895;28;20155;-89
2021/06/02 05:34:52;;;;;;;9.93;2.50;;;32.90;88.30;;;;;;5092733;28;20169;-90
2021/06/02 05:37:40;;;;;;;6.53;2.78;;;33.30;87.40;;;;;;5092612;28;20621;-89
2021/06/02 05:40:30;;;;;;;2.75;2.55;;;34.00;83.70;;;;;;5092614;28;20173;-90
2021/06/02 05:43:34;;;;;;;13.23;3.90;;;34.60;81.80;;;;;;5092738;28;20170;-89
2021/06/02 05:46:18;;;;;;;7.18;3.67;;;35.20;80.20;;;;;;5092590;28;20189;-89
2021/06/02 05:49:31;;;;;;;6.38;3.00;;;35.80;78.90;;;;;;5092412;28;20151;-89
2021/06/02 05:52:15;;;;;;;3.85;2.30;;;36.40;78.00;;;;;;5092489;28;20167;-90
2021/06/02 05:55:18;;;;;;;5.43;2.38;;;37.10;78.20;;;;;;5092701;28;20170;-90
2021/06/02 05:57:50;;;;;;;6.80;2.25;;;37.40;76.60;;;;;;5092344;28;20489;-90
2021/06/02 06:00:28;;;;;;;10.90;2.22;;;38.10;73.80;;;;;;5092101;28;20168;-89
2021/06/02 06:03:31;;;;;;;11.43;2.47;;;38.60;67.30;;;;;;5092381;28;20170;-90
2021/06/02 06:06:03;;;;;;;5.22;2.60;;;39.10;66.20;;;;;;5075954;28;20657;-89
2021/06/02 06:08:57;;;;;;;8.35;2.60;;;39.60;64.20;;;;;;5091922;28;20161;-90
2021/06/02 06:11:44;;;;;;;10.05;2.35;;;40.00;63.90;;;;;;5091926;28;20170;-89
2021/06/02 06:14:33;;;;;;;13.98;2.13;;;39.40;60.60;;;;;;5091169;28;20213;-89
2021/06/02 06:17:07;;;;;;;7.63;2.55;;;38.00;60.60;;;;;;5062520;28;20190;-89
2021/06/02 06:19:43;;;;;;;9.93;2.65;;;38.40;62.50;;;;;;5099616;28;20162;-90
2021/06/02 06:22:47;;;;;;;5.45;2.38;;;38.90;61.00;;;;;;5115564;28;20180;-91
2021/06/02 06:25:30;;;;;;;4.93;2.13;;;39.70;59.60;;;;;;5076990;28;20202;-90
2021/06/02 06:27:59;;;;;;;10.45;2.33;;;39.50;58.20;;;;;;5057856;28;20162;-89
2021/06/02 06:30:38;;;;;;;14.65;2.80;;;39.10;58.70;;;;;;5057831;28;20158;-90
2021/06/02 06:33:15;;;;;;;6.85;2.47;;;39.50;58.70;;;;;;5057627;28;20686;-89
2021/06/02 06:35:44;;;;;;;11.45;3.45;;;40.20;58.70;;;;;;5110148;28;20204;-89
2021/06/02 06:38:14;;;;;;;10.60;2.42;;;40.60;56.70;;;;;;5099020;28;20144;-90
2021/06/02 06:40:41;;;;;;;9.10;2.70;;;40.70;57.10;;;;;;5112527;28;20184;-90
2021/06/02 06:43:11;;;;;;;6.43;1.80;;;41.70;57.30;;;;;;5091346;28;20186;-90
2021/06/02 06:45:39;;;;;;;3.13;2.00;;;42.20;53.90;;;;;;5057108;28;20182;-90
2021/06/02 06:48:16;;;;;;;5.85;2.00;;;42.10;54.20;;;;;;5091157;28;20642;-89
2021/06/02 06:50:47;;;;;;;11.75;2.05;;;42.30;53.50;;;;;;5092808;28;20327;-90
2021/06/02 06:53:14;;;;;;;10.20;2.00;;;43.10;54.40;;;;;;5075454;28;20186;-90
2021/06/02 06:55:40;;;;;;;11.27;2.17;;;42.10;51.60;;;;;;5074672;28;20266;-89
2021/06/02 06:58:07;;;;;;;9.40;1.70;;;41.60;53.10;;;;;;5075644;28;20161;-90
2021/06/02 07:00:34;;;;;;;7.10;2.03;;;42.30;52.60;;;;;;5092594;28;20253;-90
2021/06/02 07:03:01;;;;;;;7.75;1.73;;;43.40;53.90;;;;;;5092051;28;20220;-90
2021/06/02 07:05:27;;;;;;;4.43;1.80;;;44.30;51.10;;;;;;5091825;28;20209;-91
2021/06/02 07:07:55;;;;;;;4.50;1.77;;;44.40;50.20;;;;;;5058368;28;20194;-90
2021/06/02 07:10:22;;;;;;;6.97;2.00;;;44.70;50.30;;;;;;5074459;28;20170;-90
2021/06/02 07:12:49;;;;;;;10.18;1.70;;;44.90;50.50;;;;;;5090496;28;20166;-90
2021/06/02 07:15:16;;;;;;;11.05;1.65;;;45.10;50.10;;;;;;5091415;28;20607;-90
2021/06/02 07:17:49;;;;;;;4.32;1.20;;;45.40;49.00;;;;;;5091675;28;20166;-90
2021/06/02 07:20:20;;;;;;;3.17;1.30;;;45.70;48.40;;;;;;5054206;28;20163;-89
2021/06/02 07:22:47;;;;;;;6.72;1.60;;;45.40;47.60;;;;;;5051030;28;20159;-90
2021/06/02 07:25:26;;;;;;;10.68;1.75;;;45.40;50.30;;;;;;5056396;28;20615;-90
2021/06/02 07:27:54;;;;;;;6.22;1.40;;;46.20;49.70;;;;;;5057321;28;20426;-90
2021/06/02 07:30:23;;;;;;;8.88;1.52;;;46.50;47.80;;;;;;5040494;28;20170;-89
2021/06/02 07:32:49;;;;;;;9.90;1.50;;;45.50;47.50;;;;;;5090367;28;20165;-90
2021/06/02 07:35:15;;;;;;;14.63;1.55;;;45.50;47.00;;;;;;5056669;28;20178;-90
2021/06/02 07:37:40;;;;;;;7.50;1.80;;;45.60;48.30;;;;;;5073157;28;20230;-90
2021/06/02 07:40:08;;;;;;;4.45;1.50;;;45.70;46.90;;;;;;5056032;28;20169;-88
2021/06/02 07:42:34;;;;;;;5.57;1.30;;;43.70;46.90;;;;;;5090168;28;20647;-89
2021/06/02 07:45:00;;;;;;;2.88;1.55;;;40.60;50.70;;;;;;5090127;28;20198;-89
2021/06/02 07:47:26;;;;;;;3.97;1.85;;;41.50;49.80;;;;;;5090268;28;20174;-89
2021/06/02 07:49:52;;;;;;;4.85;1.60;;;41.20;48.80;;;;;;5091104;28;20170;-89
2021/06/02 07:52:18;;;;;;;15.52;1.70;;;41.70;48.90;;;;;;5075062;28;20151;-89
2021/06/02 07:54:43;;;;;;;4.85;1.00;;;42.50;48.30;;;;;;5091334;28;20174;-89
2021/06/02 07:57:09;;;;;;;9.13;1.30;;;43.50;48.90;;;;;;5090869;28;20186;-89
2021/06/02 07:59:35;;;;;;;3.65;1.27;;;44.70;48.40;;;;;;5090785;28;20162;-88
2021/06/02 08:02:02;;;;;;;4.13;1.17;;;45.90;47.20;;;;;;5073103;28;20626;-89
2021/06/02 08:04:31;;;;;;;10.05;1.17;;;46.30;45.90;;;;;;5074129;28;20166;-89
2021/06/02 08:07:00;;;;;;;5.65;1.83;;;46.20;45.30;;;;;;5089801;28;20170;-88
2021/06/02 08:09:25;;;;;;;2.17;1.13;;;44.90;44.60;;;;;;5073855;28;20174;-88
2021/06/02 08:11:51;;;;;;;1.38;1.05;;;45.40;46.80;;;;;;5073247;28;20178;-87
2021/06/02 08:14:17;;;;;;;1.10;0.93;;;45.40;44.20;;;;;;5072268;28;20197;-87
2021/06/02 08:16:43;;;;;;;2.17;1.17;;;43.70;43.90;;;;;;5089639;28;20170;-89
2021/06/02 08:19:08;;;;;;;3.60;1.00;;;42.50;47.00;;;;;;5074510;28;20166;-89
2021/06/02 08:21:35;;;;;;;5.35;1.10;;;44.60;44.80;;;;;;5084918;28;20175;-87
2021/06/02 08:24:03;;;;;;;3.05;1.00;;;42.40;45.40;;;;;;5073141;28;20162;-88
2021/06/02 08:26:28;;;;;;;5.00;1.20;;;43.30;45.60;;;;;;5074505;28;20239;-88
2021/06/02 08:28:56;;;;;;;2.92;1.10;;;40.30;47.20;;;;;;5039957;28;20565;-88
2021/06/02 08:31:23;;;;;;;4.13;0.93;;;40.20;47.80;;;;;;5041180;28;20595;-88
2021/06/02 08:33:49;;;;;;;2.80;1.20;;;42.40;48.60;;;;;;5056903;28;20623;-88
2021/06/02 08:36:14;;;;;;;1.83;1.00;;;42.50;48.70;;;;;;5057569;28;20210;-88
2021/06/02 08:38:40;;;;;;;1.23;0.98;;;43.70;45.50;;;;;;5056688;28;20173;-88
2021/06/02 08:41:07;;;;;;;1.98;0.95;;;44.60;45.10;;;;;;5090258;28;20265;-88
2021/06/02 08:43:34;;;;;;;1.25;1.15;;;44.80;44.40;;;;;;5038799;28;20189;-88
2021/06/02 08:46:00;;;;;;;3.40;1.15;;;44.30;43.30;;;;;;5055641;28;20277;-89
2021/06/02 08:48:26;;;;;;;1.35;0.95;;;43.40;43.50;;;;;;5070744;28;20182;-87
2021/06/02 08:50:52;;;;;;;8.98;0.90;;;43.20;44.30;;;;;;5063264;28;20158;-88
2021/06/02 08:53:19;;;;;;;3.47;0.75;;;44.30;44.10;;;;;;5117099;28;20185;-88
2021/06/02 08:55:45;;;;;;;1.23;0.88;;;43.70;44.70;;;;;;5089687;28;20166;-88
2021/06/02 08:58:23;;;;;;;1.33;1.13;;;43.80;45.40;;;;;;5061338;28;20170;-94
2021/06/02 09:00:50;;;;;;;3.22;0.80;;;42.60;48.20;;;;;;5078651;28;20134;-91
2021/06/02 09:03:16;;;;;;;6.40;1.08;;;44.30;45.10;;;;;;5062791;28;20530;-91
2021/06/02 09:05:42;;;;;;;1.00;1.00;;;45.20;44.20;;;;;;5066389;28;20269;-90
2021/06/02 09:08:12;;;;;;;4.35;1.10;;;43.60;43.10;;;;;;5116646;28;20154;-88
2021/06/02 09:10:41;;;;;;;3.60;1.48;;;43.60;44.50;;;;;;5100900;28;20142;-89
2021/06/02 09:13:19;;;;;;;4.28;0.90;;;41.60;44.30;;;;;;5102384;28;20193;-90
2021/06/02 09:15:47;;;;;;;3.53;1.00;;;44.00;47.00;;;;;;5094350;28;20274;-89
2021/06/02 09:18:20;;;;;;;2.42;1.10;;;45.30;44.20;;;;;;5077454;28;20312;-88
2021/06/02 09:20:51;;;;;;;7.40;1.10;;;41.80;46.40;;;;;;5097059;28;20158;-87
2021/06/02 09:23:36;;;;;;;1.92;1.05;;;40.00;45.20;;;;;;5077194;28;20158;-86
2021/06/02 09:26:10;;;;;;;3.47;1.00;;;39.80;47.20;;;;;;5076200;28;20520;-86
2021/06/02 09:29:11;;;;;;;1.13;1.05;;;40.00;46.60;;;;;;5076367;28;20202;-86
2021/06/02 09:31:38;;;;;;;2.90;1.00;;;42.60;48.20;;;;;;5091882;28;20555;-86
2021/06/02 09:34:12;;;;;;;2.97;1.08;;;45.00;46.00;;;;;;5091659;28;20220;-86
2021/06/02 09:36:39;;;;;;;4.72;1.20;;;42.30;44.30;;;;;;5091590;28;20219;-85
2021/06/02 09:39:07;;;;;;;8.32;2.53;;;42.90;47.40;;;;;;5091561;28;20224;-86
2021/06/02 09:42:02;;;;;;;1.55;1.10;;;43.60;47.20;;;;;;5092266;28;20219;-89
2021/06/02 09:44:29;;;;;;;1.92;1.00;;;44.60;44.40;;;;;;5055995;28;20649;-86
2021/06/02 09:47:12;;;;;;;1.17;1.08;;;44.10;44.10;;;;;;5074257;28;20178;-86
2021/06/02 09:49:52;;;;;;;1.10;1.00;;;43.90;44.50;;;;;;5091817;28;20249;-93
2021/06/02 09:52:19;;;;;;;2.75;1.23;;;43.90;45.40;;;;;;5092331;28;20175;-93
2021/06/02 09:54:46;;;;;;;1.58;1.15;;;44.00;45.50;;;;;;5060012;28;20170;-94
2021/06/02 09:57:14;;;;;;;1.38;1.17;;;43.60;44.80;;;;;;5078329;28;20166;-96
2021/06/02 09:59:55;;;;;;;3.00;1.05;;;42.50;44.40;;;;;;5086854;28;20182;-93
2021/06/02 10:02:20;;;;;;;0.98;0.90;;;43.80;44.70;;;;;;5059342;28;20159;-96
2021/06/02 10:05:01;;;;;;;2.40;1.52;;;43.60;44.90;;;;;;5058457;28;20182;-94
2021/06/02 10:07:28;;;;;;;0.88;0.85;;;44.20;45.10;;;;;;5057987;28;20186;-94
2021/06/02 10:09:54;;;;;;;1.08;0.82;;;45.80;45.20;;;;;;5093008;28;20231;-93
2021/06/02 10:12:19;;;;;;;1.33;1.13;;;45.70;43.30;;;;;;5093050;28;20146;-93
2021/06/02 10:14:58;;;;;;;1.67;0.98;;;44.40;45.60;;;;;;5077918;28;20182;-91
2021/06/02 10:17:37;;;;;;;1.30;1.02;;;43.60;44.50;;;;;;5092717;28;20269;-93
2021/06/02 10:20:09;;;;;;;1.50;1.38;;;43.00;43.60;;;;;;5062215;28;20158;-94
2021/06/02 10:22:35;;;;;;;2.80;1.30;;;43.10;45.90;;;;;;5094046;28;20174;-89
2021/06/02 10:25:04;;;;;;;3.42;1.00;;;39.90;46.90;;;;;;5091354;28;20192;-91
2021/06/02 10:27:30;;;;;;;2.03;1.02;;;40.20;48.00;;;;;;5075340;28;20172;-90
2021/06/02 10:29:56;;;;;;;4.13;1.15;;;41.40;46.60;;;;;;5057636;28;20597;-88
2021/06/02 10:32:23;;;;;;;2.10;1.17;;;42.10;45.50;;;;;;5091543;28;20169;-90
2021/06/02 10:34:51;;;;;;;1.10;1.00;;;41.70;47.90;;;;;;5076283;28;20253;-91
2021/06/02 10:37:19;;;;;;;1.63;1.15;;;43.80;47.90;;;;;;5091622;28;20257;-91
2021/06/02 10:39:51;;;;;;;1.98;1.00;;;44.20;45.90;;;;;;5075308;28;20650;-88
2021/06/02 10:42:37;;;;;;;1.10;1.00;;;43.60;45.10;;;;;;5092154;28;20261;-91
2021/06/02 10:45:26;;;;;;;1.30;1.08;;;39.70;45.90;;;;;;5075265;28;20192;-89
2021/06/02 10:48:00;;;;;;;1.58;0.90;;;41.20;47.40;;;;;;5028732;28;20544;-90
2021/06/02 10:50:41;;;;;;;2.85;1.10;;;41.00;48.80;;;;;;5055631;28;20150;-89
2021/06/02 10:53:21;;;;;;;4.40;1.05;;;39.50;48.20;;;;;;5037903;28;20166;-90
2021/06/02 10:55:51;;;;;;;1.02;1.00;;;41.40;48.60;;;;;;5038545;28;20509;-90
2021/06/02 10:58:27;;;;;;;3.08;1.23;;;41.70;47.10;;;;;;5090810;28;20162;-80
2021/06/02 11:01:16;;;;;;;1.15;1.10;;;39.90;47.60;;;;;;5075076;28;20607;-94
2021/06/02 11:03:44;;;;;;;1.20;1.10;;;39.30;51.20;;;;;;5058155;28;20207;-92
2021/06/02 11:06:16;;;;;;;1.20;1.10;;;42.00;49.50;;;;;;5076156;28;20182;-93
2021/06/02 11:08:50;;;;;;;1.98;1.10;;;43.30;47.60;;;;;;5056744;28;20170;-91
2021/06/02 11:11:26;;;;;;;0.82;0.82;;;44.70;46.20;;;;;;5071247;28;20169;-91
2021/06/02 11:14:13;;;;;;;1.48;1.08;;;43.80;47.10;;;;;;5056814;28;20196;-89
2021/06/02 11:16:54;;;;;;;1.50;1.30;;;42.60;47.80;;;;;;5075011;28;20200;-90
2021/06/02 11:19:25;;;;;;;2.35;1.00;;;43.50;47.00;;;;;;5093605;28;20165;-91
2021/06/02 11:21:54;;;;;;;1.88;1.20;;;43.80;46.20;;;;;;5098441;28;20149;-91
2021/06/02 11:24:32;;;;;;;2.25;1.23;;;43.80;47.30;;;;;;5098305;28;20149;-93
2021/06/02 11:27:10;;;;;;;2.40;1.45;;;43.20;47.50;;;;;;5081358;28;20196;-91
2021/06/02 11:29:37;;;;;;;1.50;1.15;;;43.70;48.00;;;;;;5090374;28;20614;-91
2021/06/02 11:32:20;;;;;;;1.88;1.10;;;44.90;46.40;;;;;;5073748;28;20665;-90
2021/06/02 11:34:52;;;;;;;3.08;1.27;;;44.80;46.10;;;;;;5090638;28;20173;-91
2021/06/02 11:37:20;;;;;;;5.60;1.10;;;43.40;49.00;;;;;;5110948;28;20151;-92
2021/06/02 11:39:48;;;;;;;3.00;1.48;;;42.70;48.60;;;;;;5110809;28;20174;-81
2021/06/02 11:42:43;;;;;;;6.35;1.40;;;43.20;48.60;;;;;;5084536;28;20163;-75
2021/06/02 11:45:12;;;;;;;1.92;1.30;;;42.80;48.10;;;;;;5073374;28;20189;-75
2021/06/02 11:48:00;;;;;;;3.42;1.30;;;41.60;47.30;;;;;;5074397;28;20162;-90
2021/06/02 11:50:38;;;;;;;2.40;1.30;;;39.90;50.10;;;;;;5090150;28;20166;-91
2021/06/02 11:53:06;;;;;;;8.77;1.42;;;38.80;51.60;;;;;;5089057;28;20172;-92
2021/06/02 11:55:39;;;;;;;6.97;1.27;;;39.60;51.90;;;;;;5056613;28;20250;-93
2021/06/02 11:58:10;;;;;;;2.95;1.20;;;40.30;51.30;;;;;;5090671;28;20173;-92
2021/06/02 12:00:39;;;;;;;1.88;1.48;;;41.20;51.40;;;;;;5090028;28;20276;-91
2021/06/02 12:03:09;;;;;;;1.30;1.20;;;41.80;49.30;;;;;;5090055;28;20699;-91
2021/06/02 12:05:52;;;;;;;2.80;1.30;;;41.50;51.20;;;;;;5090085;28;20186;-91
2021/06/02 12:08:17;;;;;;;5.50;1.73;;;42.10;49.60;;;;;;5090175;28;20162;-91
2021/06/02 12:10:51;;;;;;;1.85;1.15;;;42.10;48.90;;;;;;5090464;28;20177;-91
2021/06/02 12:13:24;;;;;;;5.75;1.50;;;42.00;50.60;;;;;;5090209;28;20219;-93
2021/06/02 12:16:00;;;;;;;8.82;1.30;;;42.60;49.70;;;;;;5091097;28;20260;-92
2021/06/02 12:19:00;;;;;;;6.43;1.20;;;41.60;49.70;;;;;;5073432;28;20166;-90
2021/06/02 12:21:31;;;;;;;4.88;1.60;;;38.60;52.30;;;;;;5056868;28;20716;-91
2021/06/02 12:24:32;;;;;;;4.57;1.50;;;36.70;52.90;;;;;;5056634;28;20178;-92
2021/06/02 12:27:01;;;;;;;3.03;1.30;;;35.40;54.60;;;;;;5053391;28;20182;-91
2021/06/02 12:29:34;;;;;;;4.93;1.40;;;34.70;56.20;;;;;;5094203;28;20166;-92
2021/06/02 12:32:24;;;;;;;3.08;1.80;;;34.10;56.70;;;;;;5094207;28;20166;-94
2021/06/02 12:34:52;;;;;;;3.25;1.40;;;33.50;58.20;;;;;;5094004;28;20531;-90
2021/06/02 12:37:23;;;;;;;4.10;1.55;;;33.10;59.30;;;;;;5059694;28;20190;-91
2021/06/02 12:40:01;;;;;;;6.60;1.75;;;32.10;58.60;;;;;;5094757;28;20190;-91
2021/06/02 12:42:30;;;;;;;1.30;1.20;;;31.30;62.00;;;;;;5094270;28;20194;-91
2021/06/02 12:44:56;;;;;;;3.42;1.75;;;31.00;62.80;;;;;;5093883;28;20267;-92
2021/06/02 12:47:47;;;;;;;4.30;1.90;;;31.10;63.80;;;;;;5094103;28;20175;-93
2021/06/02 12:53:54;;;;;;;;;;;;;;;;;;;;;
2021/06/02 13:00:10;;;;;;;3.90;1.40;;;32.00;63.20;;;;;;5072590;28;20619;-91
2021/06/02 13:02:37;;;;;;;5.22;1.25;;;32.00;66.70;;;;;;5048657;28;20499;-92
2021/06/02 13:05:06;;;;;;;5.03;1.55;;;32.20;66.00;;;;;;5060924;28;20639;-93
2021/06/02 13:07:38;;;;;;;2.72;1.55;;;32.40;67.10;;;;;;5095859;28;20253;-94
2021/06/02 13:10:05;;;;;;;6.78;1.50;;;32.40;63.60;;;;;;5094700;28;20162;-92
2021/06/02 13:12:32;;;;;;;3.67;2.08;;;32.10;63.40;;;;;;5094463;28;20576;-91
2021/06/02 13:15:20;;;;;;;2.33;1.33;;;32.00;63.10;;;;;;5093606;28;20194;-92
2021/06/02 13:18:32;;;;;;;2.38;1.50;;;32.10;68.40;;;;;;5060224;28;20155;-93
2021/06/02 13:20:53;;;;;;;8.95;1.50;;;32.20;69.40;;;;;;5076152;28;20170;-92
2021/06/02 13:23:31;;;;;;;2.20;1.50;;;32.40;65.00;;;;;;5059763;28;20216;-92
2021/06/02 13:26:10;;;;;;;9.20;1.60;;;32.50;66.60;;;;;;5060655;28;20671;-92
2021/06/02 13:28:53;;;;;;;7.85;2.10;;;32.50;64.00;;;;;;5060359;28;20181;-94
2021/06/02 13:31:28;;;;;;;1.60;1.50;;;32.50;63.70;;;;;;5059700;28;20174;-94
2021/06/02 13:33:56;;;;;;;3.53;1.60;;;32.40;64.20;;;;;;5094080;28;20170;-93
2021/06/02 13:36:28;;;;;;;6.28;1.80;;;32.30;65.30;;;;;;5093826;28;20205;-93
2021/06/02 13:39:17;;;;;;;2.50;1.95;;;32.20;66.50;;;;;;5075339;28;20178;-92
2021/06/02 13:41:44;;;;;;;7.93;1.40;;;32.20;69.80;;;;;;5093191;28;20204;-92